Time;durP1;ratioP1;P1;durP2;ratioP2;P2;SDS_P1;SDS_P2;PMS_P1;PMS_P2;Temp;Humidity;BMP_temperature;BMP_pressure;BME280_temperature;BME280_humidity;BME280_pressure;Samples;Min_cycle;Max_cycle;Signal;HPM_P1;HPM_P2
2023/05/10 00:01:07;;;;;;;2.40;1.83;;;;;;;16.66;100.00;97530.94;4168164;28;20637;-84
2023/05/10 00:03:10;;;;;;;2.10;1.77;;;;;;;16.67;100.00;97524.66;4167974;28;20630;-83
2023/05/10 00:05:15;;;;;;;2.07;1.53;;;;;;;16.64;100.00;97532.88;4170445;28;20666;-84
2023/05/10 00:07:18;;;;;;;2.17;1.63;;;;;;;16.60;100.00;97534.19;4169258;28;20653;-84
2023/05/10 00:09:21;;;;;;;1.97;1.40;;;;;;;16.54;100.00;97534.78;4155676;28;20654;-84
2023/05/10 00:11:24;;;;;;;1.87;1.30;;;;;;;16.50;100.00;97532.63;4168661;28;20676;-84
2023/05/10 00:13:27;;;;;;;1.60;1.20;;;;;;;16.51;100.00;97535.09;4152903;28;20765;-84
2023/05/10 00:15:31;;;;;;;2.00;1.47;;;;;;;16.49;100.00;97529.16;4170094;28;20649;-84
2023/05/10 00:17:34;;;;;;;2.63;1.40;;;;;;;16.48;100.00;97537.19;4173475;28;20680;-84
2023/05/10 00:19:37;;;;;;;1.60;1.23;;;;;;;16.47;100.00;97538.19;4163737;28;20638;-84
2023/05/10 00:21:42;;;;;;;2.30;1.10;;;;;;;16.43;100.00;97531.56;4171345;28;20644;-84
2023/05/10 00:23:45;;;;;;;1.77;1.20;;;;;;;16.39;100.00;97541.59;4154207;28;20652;-84
2023/05/10 00:25:48;;;;;;;1.67;1.30;;;;;;;16.36;100.00;97531.38;4166066;28;20637;-84
2023/05/10 00:27:51;;;;;;;2.73;1.53;;;;;;;16.34;100.00;97538.63;4173112;28;21193;-84
2023/05/10 00:29:55;;;;;;;2.50;1.33;;;;;;;16.33;100.00;97530.88;4153380;28;20622;-84
2023/05/10 00:31:58;;;;;;;1.90;1.30;;;;;;;16.32;100.00;97530.03;4170285;28;20744;-85
2023/05/10 00:34:01;;;;;;;1.87;1.30;;;;;;;16.31;100.00;97544.19;4155381;28;20661;-85
2023/05/10 00:36:07;;;;;;;1.47;1.07;;;;;;;16.31;100.00;97538.91;4170447;28;20641;-85
2023/05/10 00:38:11;;;;;;;2.40;1.03;;;;;;;16.29;100.00;97540.84;4172364;28;20684;-84
2023/05/10 00:40:15;;;;;;;1.70;0.80;;;;;;;16.27;100.00;97532.28;4156452;28;20637;-85
2023/05/10 00:42:23;;;;;;;1.27;0.70;;;;;;;16.23;100.00;97535.38;4164599;28;20641;-84
2023/05/10 00:44:28;;;;;;;1.67;0.90;;;;;;;16.20;100.00;97540.91;4154885;28;20637;-84
2023/05/10 00:46:31;;;;;;;4.23;1.00;;;;;;;16.17;100.00;97539.41;4171270;28;20646;-84
2023/05/10 00:48:35;;;;;;;1.70;1.10;;;;;;;16.16;100.00;97540.41;4152211;28;20675;-85
2023/05/10 00:50:39;;;;;;;1.40;0.80;;;;;;;16.14;100.00;97542.34;4171793;28;21271;-85
2023/05/10 00:52:43;;;;;;;1.20;0.70;;;;;;;16.14;100.00;97541.53;4148360;28;21332;-84
2023/05/10 00:54:48;;;;;;;1.47;0.80;;;;;;;16.12;100.00;97538.22;4168882;28;20629;-85
2023/05/10 00:56:52;;;;;;;2.17;0.90;;;;;;;16.09;100.00;97533.28;4157995;28;20633;-85
2023/05/10 00:58:56;;;;;;;1.30;1.00;;;;;;;16.10;100.00;97543.66;4149207;28;21313;-85
2023/05/10 01:01:00;;;;;;;2.30;0.90;;;;;;;16.06;100.00;97552.00;4169489;28;20647;-85
2023/05/10 01:03:03;;;;;;;1.50;0.80;;;;;;;16.06;100.00;97552.00;4167390;28;20677;-85
2023/05/10 01:05:07;;;;;;;1.57;0.80;;;;;;;16.01;100.00;97545.53;4153066;28;20783;-84
2023/05/10 01:07:11;;;;;;;1.47;0.80;;;;;;;15.93;100.00;97550.72;4152316;28;20626;-85
2023/05/10 01:09:14;;;;;;;1.30;0.80;;;;;;;15.89;100.00;97544.94;4152717;28;20772;-85
2023/05/10 01:11:18;;;;;;;1.30;0.80;;;;;;;15.90;100.00;97559.72;4170373;28;20644;-85
2023/05/10 01:13:32;;;;;;;1.50;0.70;;;;;;;15.89;100.00;97557.25;4164397;28;21084;-85
2023/05/10 01:15:35;;;;;;;1.67;1.00;;;;;;;15.88;100.00;97560.88;4168956;28;20639;-85
2023/05/10 01:17:39;;;;;;;3.77;1.00;;;;;;;15.83;100.00;97558.69;4182592;28;20735;-85
2023/05/10 01:19:43;;;;;;;1.43;1.00;;;;;;;15.79;100.00;97562.59;4155086;28;20627;-85
2023/05/10 01:21:50;;;;;;;1.30;0.70;;;;;;;15.74;100.00;97571.88;4151361;28;20633;-85
2023/05/10 01:24:26;;;;;;;1.37;0.90;;;;;;;15.69;100.00;97564.44;4153916;28;20641;-85
2023/05/10 01:26:42;;;;;;;1.60;0.90;;;;;;;15.68;100.00;97562.81;4160509;28;21181;-85
2023/05/10 01:29:00;;;;;;;1.60;0.90;;;;;;;15.68;100.00;97554.91;4167090;28;20637;-85
2023/05/10 01:31:17;;;;;;;2.20;0.90;;;;;;;15.68;100.00;97565.44;4156734;28;20674;-85
2023/05/10 01:33:24;;;;;;;1.50;0.90;;;;;;;15.67;100.00;97562.94;4166796;28;20657;-85
2023/05/10 01:35:34;;;;;;;1.40;0.93;;;;;;;15.67;100.00;97563.78;4157391;28;20636;-85
2023/05/10 01:37:42;;;;;;;1.50;1.00;;;;;;;15.64;100.00;97558.81;4171584;28;21028;-85
2023/05/10 01:39:48;;;;;;;1.40;0.80;;;;;;;15.62;100.00;97568.66;4165372;28;20646;-83
2023/05/10 01:41:56;;;;;;;1.50;1.00;;;;;;;15.59;100.00;97570.72;4168525;28;20694;-85
2023/05/10 01:44:06;;;;;;;1.60;1.13;;;;;;;15.55;100.00;97570.22;4169295;28;20638;-85
2023/05/10 01:46:14;;;;;;;1.70;1.10;;;;;;;15.54;100.00;97572.16;4169427;28;20632;-85
2023/05/10 01:48:18;;;;;;;1.63;1.20;;;;;;;15.55;100.00;97574.66;4169603;28;20628;-85
2023/05/10 01:50:26;;;;;;;1.97;1.60;;;;;;;15.52;100.00;97574.94;4167945;28;20658;-85
2023/05/10 01:52:34;;;;;;;3.30;1.77;;;;;;;15.52;100.00;97584.66;4167349;28;21285;-85
2023/05/10 01:54:39;;;;;;;2.17;1.30;;;;;;;15.48;100.00;97583.28;4156157;28;20720;-85
2023/05/10 01:56:45;;;;;;;2.27;1.47;;;;;;;15.47;100.00;97590.34;4151195;28;20656;-85
2023/05/10 01:58:48;;;;;;;1.93;1.30;;;;;;;15.47;100.00;97592.13;4156001;28;20636;-86
2023/05/10 02:00:52;;;;;;;1.73;1.40;;;;;;;15.45;100.00;97589.63;4152201;28;20724;-85
2023/05/10 02:02:56;;;;;;;1.60;1.30;;;;;;;15.44;100.00;97595.03;4169630;28;20694;-85
2023/05/10 02:05:00;;;;;;;2.10;1.50;;;;;;;15.41;100.00;97597.97;4167101;28;20648;-84
2023/05/10 02:07:06;;;;;;;2.10;1.60;;;;;;;15.38;100.00;97593.84;4156634;28;20645;-85
2023/05/10 02:09:10;;;;;;;2.10;1.50;;;;;;;15.39;100.00;97599.91;4172570;28;20635;-85
2023/05/10 02:11:14;;;;;;;3.63;1.50;;;;;;;15.40;100.00;97599.78;4152702;28;20622;-85
2023/05/10 02:13:18;;;;;;;1.90;1.47;;;;;;;15.42;100.00;97597.00;4145645;28;20627;-85
2023/05/10 02:15:24;;;;;;;1.70;1.40;;;;;;;15.42;100.00;97602.25;4163703;28;20639;-84
2023/05/10 02:17:28;;;;;;;2.10;1.73;;;;;;;15.43;100.00;97606.53;4153382;28;20628;-84
2023/05/10 02:19:33;;;;;;;3.63;1.67;;;;;;;15.43;100.00;97596.03;4168171;28;20634;-84
2023/05/10 02:21:37;;;;;;;2.10;1.80;;;;;;;15.41;100.00;97604.06;4169065;28;21028;-84
2023/05/10 02:23:41;;;;;;;2.47;1.80;;;;;;;15.40;100.00;97607.66;4165022;28;20732;-84
2023/05/10 02:25:45;;;;;;;1.90;1.50;;;;;;;15.41;100.00;97608.47;4167302;28;20636;-84
2023/05/10 02:27:49;;;;;;;3.20;2.10;;;;;;;15.41;100.00;97616.34;4161702;28;20629;-84
2023/05/10 02:29:53;;;;;;;2.10;1.50;;;;;;;15.40;100.00;97619.97;4162316;28;20679;-84
2023/05/10 02:31:58;;;;;;;2.90;1.97;;;;;;;15.40;100.00;97620.78;4165442;28;20650;-84
2023/05/10 02:34:02;;;;;;;4.40;1.90;;;;;;;15.42;100.00;97618.03;4167820;28;20679;-84
2023/05/10 02:36:07;;;;;;;2.67;1.97;;;;;;;15.43;100.00;97617.88;4154506;28;20638;-84
2023/05/10 02:38:15;;;;;;;3.10;2.00;;;;;;;15.47;100.00;97626.28;4166821;28;20729;-84
2023/05/10 02:40:21;;;;;;;3.53;2.10;;;;;;;15.47;100.00;97618.41;4170366;28;20636;-84
2023/05/10 02:42:26;;;;;;;2.30;1.80;;;;;;;15.47;100.00;97623.66;4152674;28;20639;-84
2023/05/10 02:44:30;;;;;;;2.50;1.90;;;;;;;15.47;100.00;97627.13;4169954;28;21219;-85
2023/05/10 02:46:34;;;;;;;3.60;2.30;;;;;;;15.46;100.00;97622.84;4163069;28;20648;-85
2023/05/10 02:48:38;;;;;;;2.53;2.03;;;;;;;15.48;100.00;97627.97;4168410;28;20667;-85
2023/05/10 02:50:43;;;;;;;3.13;1.90;;;;;;;15.50;100.00;97637.38;4167481;28;20655;-85
2023/05/10 02:52:48;;;;;;;2.87;2.17;;;;;;;15.50;100.00;97629.47;4167529;28;20689;-85
2023/05/10 02:54:53;;;;;;;2.20;1.80;;;;;;;15.51;100.00;97636.38;4170591;28;20645;-85
2023/05/10 02:57:00;;;;;;;3.43;2.03;;;;;;;15.49;100.00;97637.50;4168369;28;20620;-85
2023/05/10 02:59:03;;;;;;;3.97;2.40;;;;;;;15.50;100.00;97634.72;4169061;28;20629;-85
2023/05/10 03:01:07;;;;;;;3.10;2.00;;;;;;;15.51;100.00;97648.69;4153399;28;20652;-85
2023/05/10 03:03:10;;;;;;;2.63;2.10;;;;;;;15.52;100.00;97651.19;4149221;28;21049;-84
2023/05/10 03:05:14;;;;;;;3.30;2.40;;;;;;;15.53;100.00;97644.97;4164713;28;20672;-85
2023/05/10 03:07:19;;;;;;;4.30;2.10;;;;;;;15.51;100.00;97639.00;4168800;28;20632;-84
2023/05/10 03:09:23;;;;;;;2.50;1.90;;;;;;;15.50;100.00;97645.25;4161806;28;20634;-84
2023/05/10 03:11:36;;;;;;;3.20;2.60;;;;;;;15.51;100.00;97641.63;4153978;28;20640;-85
2023/05/10 03:13:47;;;;;;;2.60;2.00;;;;;;;15.52;100.00;97645.09;4166227;28;20641;-85
2023/05/10 03:15:57;;;;;;;3.00;2.30;;;;;;;15.53;100.00;97644.09;4169429;28;20624;-84
2023/05/10 03:18:04;;;;;;;2.60;2.37;;;;;;;15.53;100.00;97649.38;4172157;28;21207;-84
2023/05/10 03:20:11;;;;;;;2.67;2.27;;;;;;;15.52;100.00;97648.56;4156749;28;21298;-85
2023/05/10 03:22:21;;;;;;;5.13;1.93;;;;;;;15.53;100.00;97646.75;4152852;28;20699;-85
2023/05/10 03:24:24;;;;;;;2.27;1.80;;;;;;;15.55;100.00;97650.06;4171845;28;20698;-85
2023/05/10 03:26:28;;;;;;;3.23;2.50;;;;;;;15.54;100.00;97654.47;4174521;28;20734;-84
2023/05/10 03:28:49;;;;;;;3.20;2.40;;;;;;;15.55;100.00;97656.97;4152500;28;20645;-84
2023/05/10 03:30:53;;;;;;;2.50;2.30;;;;;;;15.56;100.00;97650.75;4154106;28;20636;-84
2023/05/10 03:32:56;;;;;;;2.80;2.40;;;;;;;15.57;100.00;97657.66;4157868;28;20657;-85
2023/05/10 03:35:00;;;;;;;3.10;2.73;;;;;;;15.55;100.00;97661.41;4159767;28;20656;-85
2023/05/10 03:37:03;;;;;;;4.90;2.70;;;;;;;15.53;100.00;97659.88;4186429;28;21010;-85
2023/05/10 03:39:07;;;;;;;11.30;2.80;;;;;;;15.52;100.00;97653.00;4156971;28;20636;-85
2023/05/10 03:41:10;;;;;;;4.00;2.27;;;;;;;15.52;100.00;97659.06;4170546;28;20654;-85
2023/05/10 03:43:14;;;;;;;2.47;2.27;;;;;;;15.50;100.00;97655.75;4155950;28;20676;-85
2023/05/10 03:45:19;;;;;;;2.53;2.23;;;;;;;15.51;100.00;97664.47;4157700;28;21273;-84
2023/05/10 03:47:22;;;;;;;2.40;2.20;;;;;;;15.53;100.00;97665.13;4150112;28;20683;-84
2023/05/10 03:49:25;;;;;;;2.90;2.40;;;;;;;15.52;100.00;97668.75;4187588;28;20650;-85
2023/05/10 03:51:28;;;;;;;5.40;2.40;;;;;;;15.55;100.00;97667.47;4156746;28;20647;-85
2023/05/10 03:53:32;;;;;;;3.07;2.47;;;;;;;15.56;100.00;97668.31;4148088;28;20654;-85
2023/05/10 03:55:36;;;;;;;2.77;2.23;;;;;;;15.56;100.00;97666.50;4173753;28;20655;-85
2023/05/10 03:57:39;;;;;;;3.40;3.10;;;;;;;15.57;100.00;97669.97;4170787;28;20643;-85
2023/05/10 03:59:42;;;;;;;4.00;2.47;;;;;;;15.55;100.00;97662.22;4160075;28;20680;-84
2023/05/10 04:01:47;;;;;;;3.83;2.37;;;;;;;15.55;100.00;97661.41;4165456;28;20685;-85
2023/05/10 04:03:50;;;;;;;3.60;2.60;;;;;;;15.52;100.00;97663.50;4162333;28;20656;-85
2023/05/10 04:06:00;;;;;;;2.60;2.27;;;;;;;15.52;100.00;97666.13;4153309;28;21026;-84
2023/05/10 04:08:03;;;;;;;3.17;2.30;;;;;;;15.53;100.00;97668.63;4177988;28;20688;-84
2023/05/10 04:10:07;;;;;;;2.73;2.40;;;;;;;15.55;100.00;97671.09;4148007;28;21199;-85
2023/05/10 04:12:11;;;;;;;3.13;2.17;;;;;;;15.55;100.00;97669.28;4170103;28;20640;-84
2023/05/10 04:14:14;;;;;;;2.80;2.50;;;;;;;15.57;100.00;97667.34;4169434;28;20637;-85
2023/05/10 04:16:17;;;;;;;3.00;2.53;;;;;;;15.52;100.00;97669.56;4169119;28;20720;-85
2023/05/10 04:18:21;;;;;;;4.27;2.63;;;;;;;15.52;100.00;97669.56;4171008;28;20723;-85
2023/05/10 04:20:25;;;;;;;3.47;2.93;;;;;;;15.52;100.00;97666.94;4166368;28;20663;-83
2023/05/10 04:22:28;;;;;;;2.97;2.60;;;;;;;15.53;100.00;97679.13;4147421;28;20671;-85
2023/05/10 04:24:32;;;;;;;4.03;2.73;;;;;;;15.53;100.00;97667.78;4154219;28;20684;-85
2023/05/10 04:26:35;;;;;;;3.40;2.57;;;;;;;15.55;100.00;97660.59;4167656;28;20703;-85
2023/05/10 04:28:38;;;;;;;3.60;3.20;;;;;;;15.56;100.00;97670.97;4170975;28;21361;-85
2023/05/10 04:30:41;;;;;;;3.50;3.10;;;;;;;15.57;100.00;97667.34;4166679;28;21378;-84
2023/05/10 04:32:46;;;;;;;4.53;3.27;;;;;;;15.58;100.00;97680.34;4171773;28;20672;-85
2023/05/10 04:34:51;;;;;;;4.47;3.40;;;;;;;15.60;100.00;97688.06;4171188;28;20633;-84
2023/05/10 04:36:54;;;;;;;4.10;3.17;;;;;;;15.62;100.00;97688.75;4167427;28;21008;-85
2023/05/10 04:38:57;;;;;;;5.50;3.60;;;;;;;15.63;100.00;97682.53;4167886;28;20646;-85
2023/05/10 04:41:07;;;;;;;4.93;3.63;;;;;;;15.65;100.00;97675.31;4167931;28;20645;-83
2023/05/10 04:43:10;;;;;;;4.47;3.30;;;;;;;15.65;100.00;97685.81;4149482;28;21063;-86
2023/05/10 04:45:14;;;;;;;3.60;3.30;;;;;;;15.64;100.00;97674.50;4187467;28;20612;-86
2023/05/10 04:47:17;;;;;;;4.20;3.50;;;;;;;15.64;100.00;97679.75;4173402;28;20636;-85
2023/05/10 04:49:20;;;;;;;5.20;3.90;;;;;;;15.63;100.00;97685.16;4165728;28;20672;-85
2023/05/10 04:51:25;;;;;;;4.60;4.00;;;;;;;15.64;100.00;97687.63;4184261;28;20668;-85
2023/05/10 04:53:28;;;;;;;4.47;3.47;;;;;;;15.65;100.00;97686.69;4168782;28;20631;-85
2023/05/10 04:55:31;;;;;;;5.03;4.10;;;;;;;15.63;100.00;97685.97;4174669;28;20709;-86
2023/05/10 04:57:34;;;;;;;5.13;3.80;;;;;;;15.59;100.00;97694.28;4157730;28;21556;-86
2023/05/10 04:59:37;;;;;;;4.20;3.80;;;;;;;15.56;100.00;97690.19;4177310;28;21081;-86
2023/05/10 05:01:40;;;;;;;4.33;3.93;;;;;;;15.57;100.00;97697.09;4161878;28;20620;-86
2023/05/10 05:03:44;;;;;;;4.60;3.90;;;;;;;15.59;100.00;97692.50;4159800;28;22019;-86
2023/05/10 05:05:47;;;;;;;7.70;4.30;;;;;;;15.56;100.00;97700.69;4168267;28;21011;-85
2023/05/10 05:07:51;;;;;;;3.67;3.27;;;;;;;15.47;100.00;97694.63;4171917;28;20643;-84
2023/05/10 05:09:55;;;;;;;4.80;4.07;;;;;;;15.49;100.00;97700.59;4168997;28;20634;-83
2023/05/10 05:11:58;;;;;;;5.83;4.20;;;;;;;15.47;100.00;97703.38;4166859;28;20630;-84
2023/05/10 05:14:01;;;;;;;5.43;4.33;;;;;;;15.49;100.00;97703.22;4168404;28;20645;-86
2023/05/10 05:16:05;;;;;;;4.40;3.70;;;;;;;15.50;100.00;97710.97;4153238;28;21260;-85
2023/05/10 05:18:08;;;;;;;4.17;3.63;;;;;;;15.50;100.00;97705.72;4148098;28;20648;-85
2023/05/10 05:20:12;;;;;;;6.10;4.00;;;;;;;15.54;100.00;97709.69;4166059;28;20986;-85
2023/05/10 05:22:16;;;;;;;4.93;3.70;;;;;;;15.59;100.00;97715.31;4169864;28;20636;-84
2023/05/10 05:24:22;;;;;;;4.37;3.93;;;;;;;15.65;100.00;97717.38;4173075;28;20633;-84
2023/05/10 05:26:27;;;;;;;4.67;3.57;;;;;;;15.72;100.00;97723.72;4150294;28;20634;-84
2023/05/10 05:28:32;;;;;;;4.80;3.80;;;;;;;15.75;100.00;97732.16;4161898;28;20653;-84
2023/05/10 05:30:35;;;;;;;9.33;4.43;;;;;;;15.77;100.00;97730.22;4161668;28;20660;-84
2023/05/10 05:32:39;;;;;;;4.70;3.53;;;;;;;15.76;100.00;97731.19;4165253;28;20811;-84
2023/05/10 05:34:42;;;;;;;4.73;3.83;;;;;;;15.79;100.00;97725.63;4157004;28;20647;-84
2023/05/10 05:36:45;;;;;;;4.87;4.13;;;;;;;15.84;100.00;97733.09;4165725;28;20663;-84
2023/05/10 05:38:48;;;;;;;4.97;3.73;;;;;;;15.86;100.00;97731.97;4173280;28;20691;-84
2023/05/10 05:40:52;;;;;;;5.53;4.10;;;;;;;15.90;100.00;97741.22;4154208;28;20696;-84
2023/05/10 05:42:55;;;;;;;4.23;3.83;;;;;;;15.97;100.00;97741.47;4170334;28;21104;-84
2023/05/10 05:44:59;;;;;;;4.20;3.53;;;;;;;16.02;100.00;97738.25;4167931;28;20678;-85
2023/05/10 05:47:02;;;;;;;5.57;3.80;;;;;;;16.08;100.00;97742.09;4167910;28;20675;-84
2023/05/10 05:49:05;;;;;;;4.40;4.00;;;;;;;16.13;100.00;97745.09;4168812;28;20676;-87
2023/05/10 05:51:08;;;;;;;3.90;3.53;;;;;;;16.18;100.00;97741.06;4148967;28;20650;-84
2023/05/10 05:53:11;;;;;;;5.07;4.50;;;;;;;16.22;100.00;97745.09;4166345;28;20663;-84
2023/05/10 05:55:14;;;;;;;5.93;4.60;;;;;;;16.25;100.00;97744.81;4165983;28;20633;-84
2023/05/10 05:57:19;;;;;;;5.63;4.07;;;;;;;16.28;100.00;97743.66;4167932;28;20721;-84
2023/05/10 05:59:22;;;;;;;5.00;4.50;;;;;;;16.33;100.00;97749.34;4175387;28;20646;-84
2023/05/10 06:01:25;;;;;;;5.10;4.40;;;;;;;16.36;100.00;97749.03;4172319;28;20646;-83
2023/05/10 06:03:28;;;;;;;8.33;7.43;;;;;;;16.38;100.00;97744.44;4162085;28;20688;-84
2023/05/10 06:05:31;;;;;;;5.50;4.90;;;;;;;16.42;99.80;97740.53;4169911;28;20660;-84
2023/05/10 06:07:34;;;;;;;4.73;4.23;;;;;;;16.45;100.00;97750.75;4169065;28;20624;-84
2023/05/10 06:09:37;;;;;;;5.53;4.77;;;;;;;16.49;100.00;97749.50;4171686;28;20706;-84
2023/05/10 06:11:40;;;;;;;5.20;4.70;;;;;;;16.53;99.35;97749.88;4175136;28;20650;-84
2023/05/10 06:13:45;;;;;;;5.87;4.53;;;;;;;16.54;99.93;97756.78;4166745;28;21290;-84
2023/05/10 06:15:49;;;;;;;4.93;4.40;;;;;;;16.60;100.00;97756.19;4167321;28;21073;-84
2023/05/10 06:17:52;;;;;;;5.20;4.50;;;;;;;16.63;99.46;97761.16;4164770;28;20764;-83
2023/05/10 06:19:55;;;;;;;8.13;4.60;;;;;;;16.66;100.00;97760.88;4175821;28;20747;-84
2023/05/10 06:21:58;;;;;;;4.73;4.23;;;;;;;16.68;99.19;97763.34;4178429;28;20662;-84
2023/05/10 06:24:01;;;;;;;5.07;4.20;;;;;;;16.69;100.00;97768.47;4156621;28;20696;-84
2023/05/10 06:26:04;;;;;;;4.57;4.07;;;;;;;16.72;98.27;97772.63;4160631;28;20629;-84
2023/05/10 06:28:07;;;;;;;5.83;4.73;;;;;;;16.73;99.62;97769.84;4166658;28;20683;-84
2023/05/10 06:30:14;;;;;;;7.43;5.23;;;;;;;16.73;98.79;97774.25;4172837;28;20634;-84
2023/05/10 06:32:17;;;;;;;6.60;5.90;;;;;;;16.68;100.00;97761.53;4168240;28;20652;-84
2023/05/10 06:34:20;;;;;;;5.10;4.60;;;;;;;16.71;99.84;97771.78;4166006;28;20670;-84
2023/05/10 06:36:24;;;;;;;5.90;4.80;;;;;;;16.72;98.41;97765.53;4173290;28;21077;-84
2023/05/10 06:38:27;;;;;;;5.47;4.77;;;;;;;16.66;98.92;97770.59;4154048;28;20638;-84
2023/05/10 06:40:30;;;;;;;5.07;4.57;;;;;;;16.64;99.15;97768.09;4150656;28;20635;-84
2023/05/10 06:42:33;;;;;;;5.13;4.30;;;;;;;16.69;99.59;97765.03;4160900;28;20983;-84
2023/05/10 06:44:37;;;;;;;7.63;5.33;;;;;;;16.68;98.05;97774.72;4163015;28;20649;-85
2023/05/10 06:46:42;;;;;;;5.63;4.60;;;;;;;16.65;97.98;97769.75;4167380;28;20734;-84
2023/05/10 06:48:45;;;;;;;5.93;4.83;;;;;;;16.66;98.16;97773.22;4152761;28;20654;-84
2023/05/10 06:50:48;;;;;;;6.13;5.20;;;;;;;16.65;97.67;97779.44;4171189;28;20637;-84
2023/05/10 06:52:51;;;;;;;5.77;5.17;;;;;;;16.60;98.80;97774.63;4156878;28;20630;-84
2023/05/10 06:54:55;;;;;;;4.90;4.30;;;;;;;16.55;97.60;97771.63;4164222;28;20640;-86
2023/05/10 06:56:58;;;;;;;6.47;4.67;;;;;;;16.54;97.94;97775.22;4147921;28;20662;-85
2023/05/10 06:59:03;;;;;;;5.33;4.40;;;;;;;16.55;98.80;97774.25;4169048;28;21186;-85
2023/05/10 07:01:06;;;;;;;5.43;4.87;;;;;;;16.58;97.57;97776.59;4160175;28;20790;-85
2023/05/10 07:03:11;;;;;;;6.93;4.87;;;;;;;16.64;97.26;97776.00;4154718;28;20626;-85
2023/05/10 07:05:14;;;;;;;8.00;5.17;;;;;;;16.66;97.64;97784.56;4173905;28;20660;-85
2023/05/10 07:07:18;;;;;;;4.80;4.30;;;;;;;16.68;97.60;97779.97;4167674;28;20628;-86
2023/05/10 07:09:21;;;;;;;5.17;4.43;;;;;;;16.68;96.55;97784.44;4164821;28;20690;-86
2023/05/10 07:11:24;;;;;;;4.47;4.07;;;;;;;16.65;98.32;97776.81;4166241;28;20622;-85
2023/05/10 07:13:28;;;;;;;4.10;3.60;;;;;;;16.69;98.17;97776.38;4155395;28;21270;-86
2023/05/10 07:15:31;;;;;;;5.87;3.80;;;;;;;16.77;97.40;97783.53;4167831;28;20830;-85
2023/05/10 07:17:34;;;;;;;5.00;4.00;;;;;;;16.79;96.73;97787.66;4166494;28;20660;-85
2023/05/10 07:19:38;;;;;;;11.43;10.20;;;;;;;16.83;96.44;97791.66;4159296;28;20678;-85
2023/05/10 07:21:43;;;;;;;4.93;3.90;;;;;;;16.91;97.65;97791.72;4161420;28;21023;-85
2023/05/10 07:23:46;;;;;;;3.97;3.57;;;;;;;16.99;96.82;97786.53;4162402;28;20629;-85
2023/05/10 07:25:51;;;;;;;4.40;3.83;;;;;;;17.04;96.30;97785.09;4168867;28;20724;-85
2023/05/10 07:27:54;;;;;;;4.40;3.47;;;;;;;17.12;95.65;97793.09;4170214;28;20613;-85
2023/05/10 07:29:58;;;;;;;3.77;3.10;;;;;;;17.19;95.28;97790.66;4160693;28;20626;-85
2023/05/10 07:32:01;;;;;;;5.00;3.33;;;;;;;17.25;95.53;97795.34;4166606;28;20741;-85
2023/05/10 07:34:04;;;;;;;5.70;3.30;;;;;;;17.30;94.69;97793.09;4155059;28;20645;-85
2023/05/10 07:36:09;;;;;;;4.67;4.00;;;;;;;17.35;95.31;97796.94;4160025;28;20637;-85
2023/05/10 07:38:12;;;;;;;3.80;3.10;;;;;;;17.41;95.42;97800.75;4158330;28;20662;-85
2023/05/10 07:40:16;;;;;;;3.93;3.47;;;;;;;17.46;94.68;97805.41;4157165;28;20649;-85
2023/05/10 07:42:19;;;;;;;3.43;3.00;;;;;;;17.47;94.19;97812.34;4170154;28;20740;-85
2023/05/10 07:44:23;;;;;;;3.07;2.57;;;;;;;17.48;93.01;97802.59;4155582;28;20708;-85
2023/05/10 07:46:26;;;;;;;3.00;2.60;;;;;;;17.48;92.46;97800.81;4161663;28;20679;-85
2023/05/10 07:48:29;;;;;;;5.07;2.90;;;;;;;17.48;92.25;97803.47;4171659;28;20619;-85
2023/05/10 07:50:32;;;;;;;4.47;2.73;;;;;;;17.47;92.56;97791.25;4156786;28;22015;-84
2023/05/10 07:52:37;;;;;;;3.23;2.60;;;;;;;17.50;91.83;97800.66;4154499;28;21103;-85
2023/05/10 07:54:40;;;;;;;4.30;3.13;;;;;;;17.49;92.41;97796.38;4141470;28;21058;-85
2023/05/10 07:56:45;;;;;;;3.30;2.60;;;;;;;17.49;92.69;97794.53;4168180;28;20698;-85
2023/05/10 07:58:48;;;;;;;2.60;2.40;;;;;;;17.47;92.15;97799.16;4171769;28;20662;-85
2023/05/10 08:00:52;;;;;;;3.77;2.73;;;;;;;17.50;92.40;97795.41;4159582;28;20718;-85
2023/05/10 08:02:55;;;;;;;4.10;2.70;;;;;;;17.51;92.42;97799.66;4140304;28;20648;-85
2023/05/10 08:04:58;;;;;;;3.60;3.00;;;;;;;17.58;92.51;97800.72;4134653;28;20648;-85
2023/05/10 08:07:01;;;;;;;3.10;2.60;;;;;;;17.61;91.13;97795.94;4139535;28;20636;-85
2023/05/10 08:09:06;;;;;;;5.10;2.37;;;;;;;17.64;91.11;97798.28;4149844;28;20703;-84
2023/05/10 08:11:09;;;;;;;2.60;2.20;;;;;;;17.66;91.30;97795.47;4170348;28;20669;-86
2023/05/10 08:13:12;;;;;;;3.77;2.53;;;;;;;17.69;90.36;97797.81;4159695;28;20628;-84
2023/05/10 08:15:15;;;;;;;3.20;2.67;;;;;;;17.70;90.90;97802.13;4152105;28;20635;-84
2023/05/10 08:17:19;;;;;;;3.33;2.40;;;;;;;17.68;90.71;97806.69;4154909;28;20647;-84
2023/05/10 08:19:24;;;;;;;4.00;2.10;;;;;;;17.60;89.81;97793.47;4155099;28;20679;-84
2023/05/10 08:21:27;;;;;;;2.70;2.37;;;;;;;17.54;89.80;97802.81;4157092;28;21308;-84
2023/05/10 08:23:31;;;;;;;3.63;3.07;;;;;;;17.55;90.35;97796.56;4148490;28;20651;-84
2023/05/10 08:25:35;;;;;;;3.87;2.10;;;;;;;17.62;90.50;97810.81;4171506;28;20687;-84
2023/05/10 08:27:38;;;;;;;2.40;2.10;;;;;;;17.70;90.68;97807.38;4170168;28;21247;-84
2023/05/10 08:29:41;;;;;;;2.70;2.00;;;;;;;17.79;89.51;97804.63;4173315;28;20658;-84
2023/05/10 08:31:52;;;;;;;2.40;1.87;;;;;;;17.84;89.62;97805.00;4176522;28;20742;-84
2023/05/10 08:33:55;;;;;;;2.47;1.90;;;;;;;17.90;89.39;97817.56;4169282;28;21204;-84
2023/05/10 08:35:58;;;;;;;12.30;7.43;;;;;;;17.94;90.68;97818.91;4157548;28;20735;-84
2023/05/10 08:38:02;;;;;;;2.70;2.10;;;;;;;17.95;90.05;97810.00;4158338;28;21546;-84
2023/05/10 08:40:06;;;;;;;2.30;1.70;;;;;;;17.94;88.57;97811.00;4168637;28;20681;-84
2023/05/10 08:42:10;;;;;;;2.13;1.57;;;;;;;17.91;86.57;97802.56;4172677;28;20642;-84
2023/05/10 08:44:14;;;;;;;2.17;1.77;;;;;;;17.90;87.15;97811.47;4167887;28;20650;-84
2023/05/10 08:46:18;;;;;;;2.53;1.63;;;;;;;17.89;87.43;97808.00;4163614;28;20716;-84
2023/05/10 08:48:24;;;;;;;2.60;1.67;;;;;;;17.89;87.52;97802.72;4167596;28;20762;-84
2023/05/10 08:50:27;;;;;;;2.80;2.10;;;;;;;17.92;87.40;97809.50;4147868;28;20679;-84
2023/05/10 08:52:31;;;;;;;2.17;1.63;;;;;;;18.00;88.42;97819.09;4181870;28;21182;-84
2023/05/10 08:54:34;;;;;;;3.70;1.37;;;;;;;18.10;88.40;97824.25;4172614;28;20642;-83
2023/05/10 08:56:38;;;;;;;2.33;1.23;;;;;;;18.15;86.99;97814.13;4158147;28;20635;-84
2023/05/10 08:58:42;;;;;;;2.40;1.30;;;;;;;18.25;87.92;97823.56;4171947;28;20654;-83
2023/05/10 09:00:46;;;;;;;2.30;1.13;;;;;;;18.30;86.85;97828.38;4172513;28;21042;-84
2023/05/10 09:02:50;;;;;;;1.50;1.00;;;;;;;18.33;85.46;97823.59;4158643;28;20689;-84
2023/05/10 09:04:54;;;;;;;1.57;1.00;;;;;;;18.36;85.94;97831.22;4176788;28;20619;-83
2023/05/10 09:06:57;;;;;;;3.57;1.70;;;;;;;18.35;83.58;97826.09;4176714;28;20766;-83
2023/05/10 09:09:00;;;;;;;2.00;1.20;;;;;;;18.37;85.30;97837.31;4171131;28;21093;-83
2023/05/10 09:11:06;;;;;;;1.60;1.13;;;;;;;18.39;83.70;97832.69;4161912;28;21200;-83
2023/05/10 09:13:11;;;;;;;2.90;1.37;;;;;;;18.39;83.91;97835.31;4172280;28;20644;-83
2023/05/10 09:15:18;;;;;;;1.50;0.90;;;;;;;18.38;83.47;97831.06;4168643;28;20642;-83
2023/05/10 09:17:23;;;;;;;1.23;0.80;;;;;;;18.37;83.44;97832.84;4181523;28;20684;-84
2023/05/10 09:19:26;;;;;;;1.30;0.80;;;;;;;18.42;83.43;97838.50;4159810;28;21056;-84
2023/05/10 09:21:30;;;;;;;1.57;1.00;;;;;;;18.48;82.86;97832.59;4151020;28;20669;-83
2023/05/10 09:23:34;;;;;;;1.83;0.90;;;;;;;18.52;83.23;97833.91;4168039;28;20643;-83
2023/05/10 09:25:38;;;;;;;1.40;0.90;;;;;;;18.56;82.31;97840.53;4173720;28;20640;-84
2023/05/10 09:27:44;;;;;;;1.47;0.97;;;;;;;18.57;82.20;97842.19;4170026;28;21195;-83
2023/05/10 09:29:47;;;;;;;1.60;1.20;;;;;;;18.51;82.24;97843.66;4177367;28;20737;-83
2023/05/10 09:31:54;;;;;;;1.93;1.20;;;;;;;18.43;80.56;97846.25;4173563;28;21260;-83
2023/05/10 09:33:57;;;;;;;2.30;1.10;;;;;;;18.46;82.85;97845.09;4177595;28;20631;-84
2023/05/10 09:36:08;;;;;;;1.97;1.10;;;;;;;18.52;82.43;97845.31;4171069;28;20657;-83
2023/05/10 09:38:11;;;;;;;2.73;1.20;;;;;;;18.54;82.98;97845.16;4172172;28;21002;-84
2023/05/10 09:40:15;;;;;;;1.47;1.07;;;;;;;18.50;82.48;97847.25;4167872;28;21241;-84
2023/05/10 09:42:19;;;;;;;1.70;1.13;;;;;;;18.53;83.36;97841.66;4170825;28;20728;-84